createdAt,value
2022-12-11T00:00:18.417Z,99.71
2022-12-11T00:02:46.065Z,99.35
2022-12-11T00:05:13.613Z,99.16
2022-12-11T00:07:43.008Z,98.91
2022-12-11T00:10:10.730Z,99.04
2022-12-11T00:12:38.157Z,98.25
2022-12-11T00:15:06.249Z,98.83
2022-12-11T00:17:33.735Z,98.79
2022-12-11T00:20:01.271Z,98.44
2022-12-11T00:22:30.928Z,98.38
2022-12-11T00:24:59.790Z,98.30
2022-12-11T00:27:27.267Z,98.45
2022-12-11T00:29:54.756Z,98.36
2022-12-11T00:32:22.211Z,98.63
2022-12-11T00:34:49.714Z,98.78
2022-12-11T00:37:17.305Z,98.62
2022-12-11T00:39:45.446Z,98.60
2022-12-11T00:42:14.215Z,98.95
2022-12-11T00:44:41.679Z,98.71
2022-12-11T00:47:09.133Z,98.72
2022-12-11T00:49:36.554Z,98.83
2022-12-11T00:52:04.125Z,98.26
2022-12-11T00:54:31.597Z,98.34
2022-12-11T00:56:59.089Z,98.53
2022-12-11T00:59:29.170Z,98.76
2022-12-11T01:01:56.669Z,98.54
2022-12-11T01:04:24.513Z,97.92
2022-12-11T01:06:54.379Z,98.31
2022-12-11T01:09:38.681Z,98.18
2022-12-11T01:12:06.407Z,98.59
2022-12-11T01:14:35.187Z,98.71
2022-12-11T01:17:02.686Z,98.44
2022-12-11T01:19:30.322Z,99.21
2022-12-11T01:21:57.803Z,99.36
2022-12-11T01:24:25.264Z,98.96
2022-12-11T01:26:52.734Z,98.76
2022-12-11T01:29:20.216Z,98.45
2022-12-11T01:31:49.047Z,98.19
2022-12-11T01:34:16.500Z,97.91
2022-12-11T01:36:44.043Z,97.65
2022-12-11T01:39:11.660Z,98.01
2022-12-11T01:41:39.208Z,98.16
2022-12-11T01:44:09.209Z,97.98
2022-12-11T01:46:37.665Z,98.27
2022-12-11T01:49:10.034Z,98.59
2022-12-11T01:51:41.358Z,98.66
2022-12-11T01:54:12.286Z,98.95
2022-12-11T01:56:42.785Z,98.71
2022-12-11T01:59:10.933Z,99.13
2022-12-11T02:01:43.175Z,99.13
2022-12-11T02:04:13.062Z,98.58
2022-12-11T02:06:42.952Z,98.63
2022-12-11T02:09:13.319Z,98.05
2022-12-11T02:11:52.754Z,98.45
2022-12-11T02:14:29.779Z,98.78
2022-12-11T02:17:05.407Z,99.16
2022-12-11T02:19:52.899Z,99.32
2022-12-11T02:22:29.714Z,99.23
2022-12-11T02:25:10.679Z,99.15
2022-12-11T02:27:45.075Z,99.37
2022-12-11T02:30:16.667Z,99.38
2022-12-11T02:32:48.701Z,99.57
2022-12-11T02:35:21.340Z,99.17
2022-12-11T02:37:52.575Z,99.26
2022-12-11T02:40:25.751Z,99.25
2022-12-11T02:42:55.965Z,99.21
2022-12-11T02:45:27.228Z,99.05
2022-12-11T02:47:54.832Z,99.63
2022-12-11T02:50:24.381Z,99.23
2022-12-11T02:52:55.661Z,99.44
2022-12-11T02:55:25.204Z,99.36
2022-12-11T02:57:57.538Z,99.11
2022-12-11T03:00:26.367Z,99.60
2022-12-11T03:02:54.190Z,99.72
2022-12-11T03:05:21.956Z,100.00
2022-12-11T03:07:49.718Z,100.00
2022-12-11T03:10:19.852Z,100.00
2022-12-11T03:12:53.608Z,100.00
2022-12-11T03:15:23.929Z,99.95
2022-12-11T03:18:05.013Z,100.00
2022-12-11T03:20:39.362Z,100.00
2022-12-11T03:23:16.889Z,100.00
2022-12-11T03:25:50.947Z,100.00
2022-12-11T03:28:22.334Z,100.00
2022-12-11T03:30:52.359Z,100.00
2022-12-11T03:33:26.469Z,99.87
2022-12-11T03:35:57.580Z,99.15
2022-12-11T03:38:32.158Z,99.24
2022-12-11T03:41:03.251Z,99.39
2022-12-11T03:43:32.684Z,99.00
2022-12-11T03:46:01.658Z,99.05
2022-12-11T03:48:35.205Z,99.18
2022-12-11T03:51:06.075Z,99.23
2022-12-11T03:53:35.405Z,99.35
2022-12-11T03:56:05.091Z,99.30
2022-12-11T03:58:33.180Z,99.50
2022-12-11T04:01:00.651Z,99.35
2022-12-11T04:03:29.704Z,99.48
2022-12-11T04:05:57.356Z,99.58
2022-12-11T04:08:24.948Z,99.95
2022-12-11T04:11:13.875Z,100.00
2022-12-11T04:13:42.368Z,100.00
2022-12-11T04:16:09.387Z,100.00
2022-12-11T04:18:55.943Z,100.00
2022-12-11T04:21:40.130Z,100.00
2022-12-11T04:24:17.205Z,99.87
2022-12-11T04:26:45.856Z,99.86
2022-12-11T04:29:14.128Z,99.84
2022-12-11T04:31:41.788Z,100.00
2022-12-11T04:34:10.629Z,99.95
2022-12-11T04:36:38.542Z,100.00
2022-12-11T04:39:06.904Z,100.00
2022-12-11T04:41:35.040Z,100.00
2022-12-11T04:44:02.551Z,100.00
2022-12-11T04:46:30.138Z,99.99
2022-12-11T04:48:58.112Z,99.85
2022-12-11T04:51:27.908Z,99.82
2022-12-11T04:53:55.957Z,99.78
2022-12-11T04:56:23.688Z,99.97
2022-12-11T04:58:51.175Z,100.00
2022-12-11T05:01:21.100Z,100.00
2022-12-11T05:03:48.907Z,99.96
2022-12-11T05:06:16.517Z,99.79
2022-12-11T05:08:46.297Z,100.00
2022-12-11T05:11:15.718Z,100.00
2022-12-11T05:13:43.573Z,100.00
2022-12-11T05:16:13.641Z,100.00
2022-12-11T05:18:41.415Z,100.00
2022-12-11T05:21:11.330Z,100.00
2022-12-11T05:23:39.269Z,100.00
2022-12-11T05:26:12.457Z,100.00
2022-12-11T05:28:40.694Z,99.94
2022-12-11T05:31:12.619Z,99.89
2022-12-11T05:33:40.472Z,100.00
2022-12-11T05:36:09.050Z,99.80
2022-12-11T05:38:36.542Z,99.96
2022-12-11T05:41:06.198Z,100.00
2022-12-11T05:43:37.342Z,100.00
2022-12-11T05:46:09.064Z,99.96
2022-12-11T05:48:37.942Z,100.00
2022-12-11T05:51:06.419Z,100.00
2022-12-11T05:53:34.109Z,100.00
2022-12-11T05:56:06.305Z,100.00
2022-12-11T05:58:35.781Z,100.00
2022-12-11T06:01:03.541Z,99.91
2022-12-11T06:03:30.972Z,99.83
2022-12-11T06:05:58.418Z,99.49
2022-12-11T06:08:25.909Z,99.20
2022-12-11T06:10:53.443Z,99.45
2022-12-11T06:13:21.192Z,99.66
2022-12-11T06:15:50.088Z,99.19
2022-12-11T06:18:17.783Z,99.26
2022-12-11T06:20:45.613Z,99.58
2022-12-11T06:23:13.081Z,99.31
2022-12-11T06:25:41.226Z,99.46
2022-12-11T06:28:08.809Z,99.73
2022-12-11T06:30:38.658Z,100.00
2022-12-11T06:33:08.345Z,100.00
2022-12-11T06:35:41.671Z,100.00
2022-12-11T06:38:10.374Z,100.00
2022-12-11T06:40:38.093Z,100.00
2022-12-11T06:43:05.611Z,100.00
2022-12-11T06:45:33.270Z,100.00
2022-12-11T06:48:00.809Z,99.80
2022-12-11T06:50:29.738Z,99.27
2022-12-11T06:52:57.853Z,99.17
2022-12-11T06:55:25.300Z,99.77
2022-12-11T06:57:52.759Z,99.67
2022-12-11T07:00:20.429Z,99.70
2022-12-11T07:02:47.862Z,100.00
2022-12-11T07:05:15.294Z,100.00
2022-12-11T07:07:44.080Z,100.00
2022-12-11T07:10:11.797Z,100.00
2022-12-11T07:12:39.393Z,100.00
2022-12-11T07:15:07.985Z,100.00
2022-12-11T07:17:35.610Z,100.00
2022-12-11T07:20:03.718Z,100.00
2022-12-11T07:22:31.213Z,100.00
2022-12-11T07:24:59.988Z,100.00
2022-12-11T07:27:27.414Z,100.00
2022-12-11T07:29:55.429Z,100.00
2022-12-11T07:32:23.181Z,100.00
2022-12-11T07:34:52.077Z,100.00
2022-12-11T07:37:19.754Z,100.00
2022-12-11T07:39:48.842Z,100.00
2022-12-11T07:42:17.734Z,100.00
2022-12-11T07:44:45.169Z,100.00
2022-12-11T07:47:12.622Z,100.00
2022-12-11T07:49:40.074Z,100.00
2022-12-11T07:52:07.512Z,100.00
2022-12-11T07:54:34.924Z,100.00
2022-12-11T07:57:02.502Z,100.00
2022-12-11T07:59:31.339Z,100.00
2022-12-11T08:01:58.811Z,100.00
2022-12-11T08:04:26.291Z,100.00
2022-12-11T08:06:53.736Z,100.00
2022-12-11T08:09:22.527Z,100.00
2022-12-11T08:11:51.135Z,100.00
2022-12-11T08:14:18.748Z,100.00
2022-12-11T08:16:47.642Z,100.00
2022-12-11T08:19:15.642Z,100.00
2022-12-11T08:21:43.370Z,100.00
2022-12-11T08:24:11.019Z,100.00
2022-12-11T08:26:38.508Z,100.00
2022-12-11T08:29:06.059Z,100.00
2022-12-11T08:31:33.711Z,100.00
2022-12-11T08:34:02.494Z,100.00
2022-12-11T08:36:29.978Z,100.00
2022-12-11T08:38:58.046Z,100.00
2022-12-11T08:41:27.224Z,100.00
2022-12-11T08:43:55.694Z,100.00
2022-12-11T08:46:28.552Z,100.00
2022-12-11T08:48:56.932Z,100.00
2022-12-11T08:51:27.937Z,100.00
2022-12-11T08:53:56.112Z,100.00
2022-12-11T08:56:24.000Z,100.00
2022-12-11T08:58:51.960Z,100.00
2022-12-11T09:01:22.541Z,100.00
2022-12-11T09:03:50.634Z,100.00
2022-12-11T09:06:20.786Z,100.00
2022-12-11T09:08:52.931Z,100.00
2022-12-11T09:11:22.717Z,100.00
2022-12-11T09:13:50.469Z,100.00
2022-12-11T09:16:21.752Z,100.00
2022-12-11T09:18:51.093Z,100.00
2022-12-11T09:21:21.093Z,100.00
2022-12-11T09:23:50.833Z,100.00
2022-12-11T09:26:19.995Z,100.00
2022-12-11T09:28:47.533Z,100.00
2022-12-11T09:31:16.546Z,100.00
2022-12-11T09:33:44.831Z,100.00
2022-12-11T09:36:13.219Z,100.00
2022-12-11T09:38:43.187Z,100.00
2022-12-11T09:41:33.856Z,100.00
2022-12-11T09:44:07.621Z,99.74
2022-12-11T09:46:36.656Z,100.00
2022-12-11T09:49:12.238Z,99.95
2022-12-11T09:51:44.431Z,99.84
2022-12-11T09:54:15.032Z,99.50
2022-12-11T09:56:52.373Z,99.58
2022-12-11T09:59:27.499Z,99.47
2022-12-11T10:02:03.891Z,99.58
2022-12-11T10:04:43.322Z,98.81
2022-12-11T10:07:14.713Z,99.27
2022-12-11T10:09:50.364Z,99.06
2022-12-11T10:12:31.170Z,98.98
2022-12-11T10:15:15.664Z,98.66
2022-12-11T10:17:45.394Z,99.19
2022-12-11T10:20:21.529Z,99.42
2022-12-11T10:22:51.083Z,99.49
2022-12-11T10:25:22.639Z,99.21
2022-12-11T10:27:51.510Z,99.07
2022-12-11T10:30:25.958Z,98.79
2022-12-11T10:33:04.073Z,98.59
2022-12-11T10:35:37.224Z,98.64
2022-12-11T10:38:15.320Z,98.08
2022-12-11T10:40:45.495Z,97.75
2022-12-11T10:43:14.293Z,97.39
2022-12-11T10:45:51.451Z,98.00
2022-12-11T10:48:19.003Z,97.67
2022-12-11T10:50:57.935Z,97.65
2022-12-11T10:53:25.951Z,98.01
2022-12-11T10:55:54.736Z,97.47
2022-12-11T10:58:25.873Z,97.97
2022-12-11T11:01:04.960Z,98.04
2022-12-11T11:03:34.441Z,98.39
2022-12-11T11:06:07.586Z,98.58
2022-12-11T11:08:44.049Z,98.69
2022-12-11T11:11:29.386Z,97.79
2022-12-11T11:14:14.037Z,97.92
2022-12-11T11:16:43.466Z,98.00
2022-12-11T11:19:19.987Z,97.74
2022-12-11T11:21:51.012Z,96.25
2022-12-11T11:24:34.199Z,96.27
2022-12-11T11:27:13.261Z,95.99
2022-12-11T11:29:43.478Z,96.38
2022-12-11T11:32:18.590Z,96.18
2022-12-11T11:34:46.027Z,96.38
2022-12-11T11:37:25.237Z,96.26
2022-12-11T11:39:56.380Z,95.94
2022-12-11T11:42:39.592Z,95.99
2022-12-11T11:45:16.606Z,95.05
2022-12-11T11:47:53.776Z,95.46
2022-12-11T11:50:25.676Z,95.34
2022-12-11T11:53:03.177Z,94.37
2022-12-11T11:55:42.054Z,93.92
2022-12-11T11:58:16.189Z,93.62
2022-12-11T12:00:44.990Z,93.73
2022-12-11T12:03:15.994Z,92.54
2022-12-11T12:05:51.410Z,91.20
2022-12-11T12:08:31.170Z,91.77
2022-12-11T12:11:05.594Z,91.20
2022-12-11T12:13:49.409Z,90.12
2022-12-11T12:16:53.882Z,90.08
2022-12-11T12:19:24.357Z,89.54
2022-12-11T12:21:53.159Z,88.42
2022-12-11T12:24:30.545Z,88.26
2022-12-11T12:27:02.683Z,87.25
2022-12-11T12:29:45.060Z,86.84
2022-12-11T12:32:25.382Z,87.07
2022-12-11T12:35:05.061Z,86.97
2022-12-11T12:37:48.125Z,87.27
2022-12-11T12:40:21.796Z,87.76
2022-12-11T12:42:55.938Z,87.20
2022-12-11T12:45:29.639Z,87.16
2022-12-11T12:47:58.523Z,86.47
2022-12-11T12:50:35.678Z,86.29
2022-12-11T12:53:05.509Z,86.72
2022-12-11T12:55:34.809Z,86.91
2022-12-11T12:58:04.229Z,87.46
2022-12-11T13:00:35.474Z,87.53
2022-12-11T13:03:14.706Z,87.93
2022-12-11T13:05:44.236Z,88.29
2022-12-11T13:08:13.361Z,87.96
2022-12-11T13:10:43.257Z,87.66
2022-12-11T13:13:30.693Z,87.79
2022-12-11T13:16:07.766Z,88.08
2022-12-11T13:18:38.440Z,88.57
2022-12-11T13:21:26.968Z,88.08
2022-12-11T13:23:54.730Z,87.96
2022-12-11T13:26:29.128Z,87.83
2022-12-11T13:28:58.031Z,88.26
2022-12-11T13:31:36.184Z,89.00
2022-12-11T13:34:17.746Z,89.46
2022-12-11T13:36:49.941Z,90.21
2022-12-11T13:39:20.015Z,90.54
2022-12-11T13:41:51.316Z,90.83
2022-12-11T13:44:23.657Z,90.52
2022-12-11T13:46:53.826Z,90.65
2022-12-11T13:49:25.474Z,91.88
2022-12-11T13:51:54.995Z,91.86
2022-12-11T13:54:22.629Z,92.11
2022-12-11T13:57:02.464Z,91.99
2022-12-11T13:59:32.755Z,91.99
2022-12-11T14:02:05.158Z,91.85
2022-12-11T14:04:35.280Z,91.51
2022-12-11T14:07:06.854Z,91.98
2022-12-11T14:09:34.466Z,92.10
2022-12-11T14:12:01.926Z,92.50
2022-12-11T14:14:40.774Z,92.75
2022-12-11T14:17:14.913Z,93.51
2022-12-11T14:19:47.650Z,93.96
2022-12-11T14:22:19.942Z,93.79
2022-12-11T14:24:52.470Z,93.69
2022-12-11T14:27:21.031Z,94.04
2022-12-11T14:29:48.926Z,93.97
2022-12-11T14:32:21.900Z,93.68
2022-12-11T14:34:51.628Z,93.50
2022-12-11T14:37:22.036Z,91.92
2022-12-11T14:39:56.825Z,90.19
2022-12-11T14:42:26.444Z,89.45
2022-12-11T14:44:58.363Z,88.99
2022-12-11T14:47:29.941Z,88.54
2022-12-11T14:50:04.809Z,89.09
2022-12-11T14:52:37.613Z,89.14
2022-12-11T14:55:08.677Z,88.85
2022-12-11T14:57:36.976Z,88.06
2022-12-11T15:00:07.257Z,88.27
2022-12-11T15:02:36.356Z,87.64
2022-12-11T15:05:15.727Z,87.97
2022-12-11T15:07:44.895Z,87.69
2022-12-11T15:10:24.917Z,87.74
2022-12-11T15:12:52.582Z,88.20
2022-12-11T15:15:20.492Z,87.74
2022-12-11T15:17:52.900Z,88.53
2022-12-11T15:20:25.551Z,88.59
2022-12-11T15:22:53.768Z,88.17
2022-12-11T15:25:23.537Z,88.76
2022-12-11T15:27:53.853Z,89.56
2022-12-11T15:30:30.381Z,89.20
2022-12-11T15:33:21.825Z,89.12
2022-12-11T15:35:57.208Z,89.03
2022-12-11T15:38:36.863Z,89.39
2022-12-11T15:41:05.079Z,90.21
2022-12-11T15:43:36.977Z,90.36
2022-12-11T15:46:06.256Z,90.68
2022-12-11T15:48:34.100Z,90.12
2022-12-11T15:51:03.607Z,89.94
2022-12-11T15:53:31.071Z,90.53
2022-12-11T15:55:59.916Z,90.38
2022-12-11T15:58:28.125Z,90.45
2022-12-11T16:00:57.273Z,90.53
2022-12-11T16:03:25.299Z,90.31
2022-12-11T16:05:53.964Z,90.85
2022-12-11T16:08:24.732Z,90.79
2022-12-11T16:10:54.465Z,91.28
2022-12-11T16:13:22.292Z,91.78
2022-12-11T16:15:51.725Z,92.29
2022-12-11T16:18:22.069Z,92.61
2022-12-11T16:20:50.566Z,93.20
2022-12-11T16:23:18.713Z,93.13
2022-12-11T16:25:48.129Z,93.69
2022-12-11T16:28:18.286Z,93.99
2022-12-11T16:30:45.974Z,93.89
2022-12-11T16:33:14.515Z,93.76
2022-12-11T16:35:42.645Z,94.21
2022-12-11T16:38:11.082Z,94.77
2022-12-11T16:40:38.676Z,94.71
2022-12-11T16:43:08.257Z,95.68
2022-12-11T16:45:36.350Z,95.64
2022-12-11T16:48:04.899Z,96.43
2022-12-11T16:50:33.124Z,96.56
2022-12-11T16:53:00.681Z,96.64
2022-12-11T16:55:28.127Z,96.49
2022-12-11T16:57:55.543Z,96.39
2022-12-11T17:00:25.549Z,96.04
2022-12-11T17:02:53.207Z,95.80
2022-12-11T17:05:20.787Z,96.20
2022-12-11T17:07:48.334Z,95.89
2022-12-11T17:10:15.800Z,95.29
2022-12-11T17:12:43.307Z,95.34
2022-12-11T17:15:11.269Z,95.61
2022-12-11T17:17:40.206Z,95.37
2022-12-11T17:20:08.946Z,95.25
2022-12-11T17:22:37.088Z,95.23
2022-12-11T17:25:04.852Z,95.49
2022-12-11T17:27:32.375Z,96.04
2022-12-11T17:30:00.074Z,96.92
2022-12-11T17:32:27.570Z,97.60
2022-12-11T17:34:56.333Z,97.75
2022-12-11T17:37:23.782Z,98.11
2022-12-11T17:39:51.200Z,98.34
2022-12-11T17:42:18.629Z,98.42
2022-12-11T17:44:46.327Z,99.10
2022-12-11T17:47:13.781Z,99.04
2022-12-11T17:49:41.262Z,99.02
2022-12-11T17:52:10.033Z,99.74
2022-12-11T17:54:39.113Z,99.60
2022-12-11T17:57:07.333Z,99.75
2022-12-11T17:59:34.983Z,100.00
2022-12-11T18:02:02.585Z,100.00
2022-12-11T18:04:31.193Z,100.00
2022-12-11T18:06:58.772Z,100.00
2022-12-11T18:09:27.716Z,100.00
2022-12-11T18:11:55.285Z,100.00
2022-12-11T18:14:23.120Z,100.00
2022-12-11T18:16:52.043Z,100.00
2022-12-11T18:19:20.134Z,100.00
2022-12-11T18:21:47.619Z,100.00
2022-12-11T18:24:15.427Z,100.00
2022-12-11T18:26:44.387Z,100.00
2022-12-11T18:29:12.716Z,100.00
2022-12-11T18:31:42.914Z,100.00
2022-12-11T18:34:11.574Z,100.00
2022-12-11T18:36:40.580Z,100.00
2022-12-11T18:39:08.157Z,100.00
2022-12-11T18:41:35.828Z,100.00
2022-12-11T18:44:09.527Z,100.00
2022-12-11T18:46:39.345Z,100.00
2022-12-11T18:49:07.261Z,100.00
2022-12-11T18:51:35.276Z,100.00
2022-12-11T18:54:03.044Z,100.00
2022-12-11T18:56:30.647Z,100.00
2022-12-11T18:58:58.210Z,100.00
2022-12-11T19:01:29.045Z,100.00
2022-12-11T19:04:03.246Z,100.00
2022-12-11T19:06:36.526Z,100.00
2022-12-11T19:09:07.639Z,100.00
2022-12-11T19:11:36.412Z,100.00
2022-12-11T19:14:06.114Z,100.00
2022-12-11T19:16:37.137Z,100.00
2022-12-11T19:19:07.009Z,100.00
2022-12-11T19:21:35.306Z,100.00
2022-12-11T19:24:02.850Z,100.00
2022-12-11T19:26:30.656Z,100.00
2022-12-11T19:28:59.950Z,100.00
2022-12-11T19:31:30.248Z,100.00
2022-12-11T19:33:59.573Z,100.00
2022-12-11T19:36:28.910Z,100.00
2022-12-11T19:39:01.419Z,100.00
2022-12-11T19:41:30.247Z,100.00
2022-12-11T19:43:58.812Z,100.00
2022-12-11T19:46:27.071Z,100.00
2022-12-11T19:48:56.993Z,100.00
2022-12-11T19:51:29.532Z,100.00
2022-12-11T19:53:57.201Z,100.00
2022-12-11T19:56:25.539Z,100.00
2022-12-11T19:58:53.386Z,100.00
2022-12-11T20:01:24.977Z,100.00
2022-12-11T20:03:52.752Z,100.00
2022-12-11T20:06:20.449Z,100.00
2022-12-11T20:08:49.625Z,100.00
2022-12-11T20:11:19.644Z,100.00
2022-12-11T20:13:47.595Z,100.00
2022-12-11T20:16:16.262Z,100.00
2022-12-11T20:18:43.939Z,100.00
2022-12-11T20:21:14.824Z,100.00
2022-12-11T20:23:42.899Z,100.00
2022-12-11T20:26:13.686Z,100.00
2022-12-11T20:28:42.244Z,100.00
2022-12-11T20:31:18.262Z,100.00
2022-12-11T20:33:48.403Z,100.00
2022-12-11T20:36:17.482Z,100.00
2022-12-11T20:38:45.169Z,100.00
2022-12-11T20:41:15.595Z,100.00
2022-12-11T20:43:43.481Z,100.00
2022-12-11T20:46:13.637Z,100.00
2022-12-11T20:48:42.362Z,100.00
2022-12-11T20:51:11.990Z,100.00
2022-12-11T20:53:39.917Z,100.00
2022-12-11T20:56:12.885Z,100.00
2022-12-11T20:58:42.038Z,100.00
2022-12-11T21:01:15.657Z,100.00
2022-12-11T21:03:43.336Z,100.00
2022-12-11T21:06:18.467Z,100.00
2022-12-11T21:08:45.922Z,100.00
2022-12-11T21:11:13.453Z,100.00
2022-12-11T21:13:42.561Z,100.00
2022-12-11T21:16:11.452Z,100.00
2022-12-11T21:18:39.621Z,100.00
2022-12-11T21:21:07.550Z,100.00
2022-12-11T21:23:35.077Z,100.00
2022-12-11T21:26:03.099Z,100.00
2022-12-11T21:28:35.475Z,100.00
2022-12-11T21:31:06.788Z,100.00
2022-12-11T21:33:34.387Z,100.00
2022-12-11T21:36:01.935Z,100.00
2022-12-11T21:38:30.515Z,100.00
2022-12-11T21:40:58.496Z,100.00
2022-12-11T21:43:26.000Z,100.00
2022-12-11T21:46:01.962Z,100.00
2022-12-11T21:48:31.094Z,100.00
2022-12-11T21:51:06.705Z,100.00
2022-12-11T21:53:34.511Z,100.00
2022-12-11T21:56:05.962Z,100.00
2022-12-11T21:58:33.452Z,100.00
2022-12-11T22:01:00.987Z,100.00
2022-12-11T22:03:28.429Z,100.00
2022-12-11T22:05:57.213Z,100.00
2022-12-11T22:08:24.696Z,100.00
2022-12-11T22:10:52.206Z,100.00
2022-12-11T22:13:19.637Z,100.00
2022-12-11T22:15:47.080Z,100.00
2022-12-11T22:18:14.567Z,100.00
2022-12-11T22:20:42.227Z,100.00
2022-12-11T22:23:11.114Z,100.00
2022-12-11T22:25:38.733Z,100.00
2022-12-11T22:28:06.282Z,100.00
2022-12-11T22:30:33.758Z,100.00
2022-12-11T22:33:01.184Z,100.00
2022-12-11T22:35:28.635Z,100.00
2022-12-11T22:37:56.341Z,100.00
2022-12-11T22:40:26.547Z,100.00
2022-12-11T22:42:54.141Z,100.00
2022-12-11T22:45:21.734Z,100.00
2022-12-11T22:47:49.278Z,100.00
2022-12-11T22:50:16.896Z,100.00
2022-12-11T22:52:45.229Z,100.00
2022-12-11T22:55:12.951Z,100.00
2022-12-11T22:57:42.418Z,100.00
2022-12-11T23:00:13.330Z,100.00
2022-12-11T23:02:41.208Z,100.00
2022-12-11T23:05:11.215Z,100.00
2022-12-11T23:07:39.714Z,100.00
2022-12-11T23:10:09.735Z,100.00
2022-12-11T23:12:37.770Z,100.00
2022-12-11T23:15:07.885Z,100.00
2022-12-11T23:17:35.907Z,100.00
2022-12-11T23:20:05.612Z,100.00
2022-12-11T23:22:33.821Z,100.00
2022-12-11T23:25:01.691Z,100.00
2022-12-11T23:27:29.661Z,100.00
2022-12-11T23:29:57.205Z,100.00
2022-12-11T23:32:26.023Z,100.00
2022-12-11T23:34:53.486Z,100.00
2022-12-11T23:37:20.893Z,100.00
2022-12-11T23:39:48.319Z,100.00
2022-12-11T23:42:15.853Z,100.00
2022-12-11T23:44:43.503Z,100.00
2022-12-11T23:47:10.986Z,100.00
2022-12-11T23:49:39.780Z,100.00
2022-12-11T23:52:07.268Z,100.00
2022-12-11T23:54:34.801Z,100.00
2022-12-11T23:57:02.242Z,100.00
2022-12-11T23:59:29.679Z,100.00
